Time;durP1;ratioP1;P1;durP2;ratioP2;P2;SDS_P1;SDS_P2;PMS_P1;PMS_P2;Temp;Humidity;BMP_temperature;BMP_pressure;BME280_temperature;BME280_humidity;BME280_pressure;Samples;Min_cycle;Max_cycle;Signal;HPM_P1;HPM_P2
2021/07/10 00:00:12;;;;;;;11.55;6.97;;;25.40;66.50;;;;;;5053252;28;20068;-73
2021/07/10 00:02:38;;;;;;;10.05;7.07;;;25.40;66.70;;;;;;5053790;28;20057;-72
2021/07/10 00:05:06;;;;;;;8.52;7.03;;;25.40;66.80;;;;;;5053183;28;20025;-72
2021/07/10 00:07:32;;;;;;;9.30;6.85;;;25.40;67.00;;;;;;5053330;28;20040;-72
2021/07/10 00:09:59;;;;;;;8.55;6.97;;;25.40;67.10;;;;;;5053201;28;20025;-72
2021/07/10 00:12:25;;;;;;;8.57;6.57;;;25.30;67.30;;;;;;5052852;28;20021;-72
2021/07/10 00:14:51;;;;;;;10.13;6.90;;;25.30;67.40;;;;;;5053175;28;20079;-72
2021/07/10 00:17:16;;;;;;;14.00;7.18;;;25.30;67.40;;;;;;5052770;28;20033;-72
2021/07/10 00:19:42;;;;;;;10.55;6.93;;;25.30;67.50;;;;;;5053321;28;20029;-72
2021/07/10 00:22:08;;;;;;;10.40;7.00;;;25.30;67.40;;;;;;5052885;28;20036;-73
2021/07/10 00:24:35;;;;;;;11.98;6.70;;;25.20;67.40;;;;;;5053290;28;20028;-72
2021/07/10 00:27:01;;;;;;;8.50;6.60;;;25.30;67.40;;;;;;5052999;28;20049;-72
2021/07/10 00:29:27;;;;;;;11.60;7.22;;;25.30;67.50;;;;;;5052994;28;20029;-73
2021/07/10 00:31:53;;;;;;;11.75;7.15;;;25.20;67.60;;;;;;5053008;28;20032;-73
2021/07/10 00:34:19;;;;;;;9.90;7.18;;;25.20;67.60;;;;;;5052919;28;20151;-72
2021/07/10 00:36:44;;;;;;;10.55;6.50;;;25.20;67.80;;;;;;5052926;28;20040;-72
2021/07/10 00:39:10;;;;;;;10.00;6.97;;;25.10;68.00;;;;;;5052825;28;20040;-73
2021/07/10 00:41:36;;;;;;;8.88;7.15;;;25.10;68.10;;;;;;5053246;28;20052;-72
2021/07/10 00:44:02;;;;;;;14.57;7.03;;;25.10;68.30;;;;;;5056480;28;20356;-73
2021/07/10 00:46:27;;;;;;;10.23;7.03;;;25.10;68.30;;;;;;5057035;28;20029;-72
2021/07/10 00:48:53;;;;;;;10.10;6.97;;;25.00;68.40;;;;;;5056219;28;20497;-72
2021/07/10 00:51:19;;;;;;;10.68;7.20;;;25.10;68.70;;;;;;5056450;28;20317;-73
2021/07/10 00:53:46;;;;;;;11.25;6.50;;;25.00;68.70;;;;;;5055914;28;20049;-72
2021/07/10 00:56:12;;;;;;;9.90;7.55;;;25.00;68.80;;;;;;5055116;28;20028;-73
2021/07/10 00:58:38;;;;;;;10.52;7.20;;;25.00;68.80;;;;;;5056261;28;20033;-71
2021/07/10 01:01:04;;;;;;;9.88;6.85;;;25.00;69.00;;;;;;5056532;28;20036;-73
2021/07/10 01:03:34;;;;;;;9.48;6.80;;;25.00;69.10;;;;;;5056509;28;20056;-72
2021/07/10 01:06:02;;;;;;;11.68;6.65;;;25.00;69.10;;;;;;5055755;28;20082;-72
2021/07/10 01:08:28;;;;;;;11.77;6.95;;;25.00;69.10;;;;;;5056150;28;20025;-73
2021/07/10 01:10:54;;;;;;;10.65;7.13;;;24.90;69.00;;;;;;5056399;28;20363;-72
2021/07/10 01:13:21;;;;;;;11.52;7.18;;;24.90;69.00;;;;;;5055938;28;20029;-72
2021/07/10 01:15:47;;;;;;;12.23;7.60;;;24.90;69.00;;;;;;5056463;28;20025;-72
2021/07/10 01:18:12;;;;;;;11.90;7.03;;;24.80;69.10;;;;;;5056008;28;20368;-73
2021/07/10 01:20:52;;;;;;;13.57;7.90;;;24.80;69.10;;;;;;5055847;28;20029;-72
2021/07/10 01:23:18;;;;;;;14.18;7.63;;;24.80;69.40;;;;;;5055877;28;20036;-73
2021/07/10 01:25:44;;;;;;;10.48;7.45;;;24.70;69.50;;;;;;5055716;28;20029;-72
2021/07/10 01:28:13;;;;;;;9.68;7.07;;;24.70;69.90;;;;;;5055431;28;20044;-72
2021/07/10 01:30:40;;;;;;;11.50;7.68;;;24.70;70.10;;;;;;5055734;28;20431;-72
2021/07/10 01:33:06;;;;;;;13.05;7.97;;;24.60;70.10;;;;;;5055634;28;20029;-72
2021/07/10 01:35:32;;;;;;;9.85;7.82;;;24.60;70.50;;;;;;5055816;28;20109;-72
2021/07/10 01:38:00;;;;;;;12.48;8.02;;;24.60;70.90;;;;;;5055456;28;20111;-72
2021/07/10 01:40:27;;;;;;;14.05;8.30;;;24.60;71.00;;;;;;5055505;28;20026;-73
2021/07/10 01:42:53;;;;;;;11.90;7.93;;;24.60;71.00;;;;;;5055518;28;20035;-72
2021/07/10 01:45:20;;;;;;;16.40;8.90;;;24.50;70.70;;;;;;5055351;28;20406;-72
2021/07/10 01:47:50;;;;;;;10.77;8.18;;;24.50;71.20;;;;;;5055641;28;20107;-72
2021/07/10 01:50:16;;;;;;;13.05;8.60;;;24.50;71.70;;;;;;5055594;28;20025;-71
2021/07/10 01:52:43;;;;;;;10.02;7.85;;;24.40;71.70;;;;;;5055106;28;20361;-72
2021/07/10 01:55:11;;;;;;;12.77;9.07;;;24.40;71.50;;;;;;5055207;28;20100;-71
2021/07/10 01:57:38;;;;;;;12.13;7.95;;;24.40;71.40;;;;;;5055091;28;20040;-71
2021/07/10 02:00:27;;;;;;;10.80;9.15;;;24.40;71.40;;;;;;5055812;28;20044;-71
2021/07/10 02:02:54;;;;;;;11.27;8.80;;;24.30;71.50;;;;;;5054898;28;20052;-71
2021/07/10 02:05:22;;;;;;;11.80;8.57;;;24.30;71.70;;;;;;5054988;28;20578;-71
2021/07/10 02:07:49;;;;;;;12.07;8.13;;;24.30;71.80;;;;;;5054975;28;20059;-73
2021/07/10 02:10:16;;;;;;;11.43;9.70;;;24.30;71.80;;;;;;5054554;28;20029;-72
2021/07/10 02:12:50;;;;;;;11.55;8.63;;;24.30;71.60;;;;;;5054850;28;20037;-71
2021/07/10 02:15:17;;;;;;;12.38;8.45;;;24.30;71.50;;;;;;5055128;28;20554;-72
2021/07/10 02:17:44;;;;;;;14.35;8.38;;;24.30;71.40;;;;;;5054881;28;20085;-72
2021/07/10 02:20:13;;;;;;;13.25;9.35;;;24.30;71.50;;;;;;5054765;28;20041;-72
2021/07/10 02:22:38;;;;;;;11.82;9.23;;;24.30;71.70;;;;;;5054517;28;20489;-72
2021/07/10 02:25:17;;;;;;;13.88;9.18;;;24.30;71.60;;;;;;5054541;28;20021;-71
2021/07/10 02:27:43;;;;;;;11.45;8.13;;;24.30;71.70;;;;;;5070159;28;20029;-71
2021/07/10 02:30:13;;;;;;;14.63;9.13;;;24.30;71.50;;;;;;5055420;28;20341;-72
2021/07/10 02:32:39;;;;;;;17.13;9.55;;;24.30;71.30;;;;;;5054466;28;20036;-72
2021/07/10 02:35:08;;;;;;;11.15;8.80;;;24.30;71.30;;;;;;5054432;28;20513;-72
2021/07/10 02:37:34;;;;;;;12.50;9.02;;;24.30;71.70;;;;;;5053997;28;20460;-72
2021/07/10 02:40:01;;;;;;;11.05;8.80;;;24.30;71.30;;;;;;5054396;28;20075;-72
2021/07/10 02:42:26;;;;;;;12.90;9.13;;;24.30;71.40;;;;;;5054364;28;20025;-73
2021/07/10 02:44:52;;;;;;;16.60;9.02;;;24.30;71.40;;;;;;5054368;28;20074;-72
2021/07/10 02:47:18;;;;;;;12.27;9.32;;;24.30;71.60;;;;;;5054230;28;20524;-73
2021/07/10 02:49:43;;;;;;;10.38;8.52;;;24.20;71.70;;;;;;5070409;28;20096;-72
2021/07/10 02:52:11;;;;;;;14.90;8.95;;;24.30;71.80;;;;;;5069309;28;20470;-72
2021/07/10 02:54:38;;;;;;;13.85;9.05;;;24.30;71.90;;;;;;5054714;28;20029;-72
2021/07/10 02:57:04;;;;;;;13.35;9.82;;;24.30;71.80;;;;;;5053975;28;20033;-72
2021/07/10 02:59:30;;;;;;;12.57;8.85;;;24.40;71.80;;;;;;5054038;28;20112;-72
2021/07/10 03:01:56;;;;;;;15.13;9.57;;;24.40;72.00;;;;;;5054532;28;20039;-72
2021/07/10 03:04:22;;;;;;;11.88;10.27;;;24.40;72.00;;;;;;5053328;28;20474;-73
2021/07/10 03:06:48;;;;;;;13.60;9.25;;;24.50;72.00;;;;;;5053769;28;20119;-72
2021/07/10 03:09:13;;;;;;;14.13;9.73;;;24.50;72.10;;;;;;5053893;28;20164;-73
2021/07/10 03:11:39;;;;;;;12.23;9.35;;;24.50;72.30;;;;;;5054049;28;20091;-72
2021/07/10 03:14:05;;;;;;;13.68;9.55;;;24.50;72.60;;;;;;5053787;28;20031;-72
2021/07/10 03:16:30;;;;;;;10.43;8.68;;;24.60;72.90;;;;;;5053974;28;20104;-72
2021/07/10 03:18:56;;;;;;;13.57;8.85;;;24.70;73.10;;;;;;5053742;28;20107;-72
2021/07/10 03:21:22;;;;;;;14.02;9.63;;;24.70;73.00;;;;;;5053613;28;20029;-73
2021/07/10 03:23:48;;;;;;;10.68;9.15;;;24.80;73.10;;;;;;5053412;28;20108;-72
2021/07/10 03:26:14;;;;;;;13.65;9.07;;;24.90;73.10;;;;;;5053594;28;20098;-72
2021/07/10 03:28:40;;;;;;;10.63;8.30;;;25.00;73.10;;;;;;5053361;28;20029;-72
2021/07/10 03:31:07;;;;;;;10.70;8.75;;;25.00;72.70;;;;;;5054019;28;20076;-72
2021/07/10 03:33:36;;;;;;;8.68;7.78;;;25.10;72.40;;;;;;5053805;28;20067;-72
2021/07/10 03:36:05;;;;;;;8.20;7.30;;;25.10;71.80;;;;;;5053899;28;20021;-72
2021/07/10 03:38:32;;;;;;;18.02;7.95;;;25.10;71.20;;;;;;5053485;28;20033;-72
2021/07/10 03:40:58;;;;;;;11.88;7.32;;;25.20;70.70;;;;;;5053099;28;20108;-72
2021/07/10 03:43:23;;;;;;;9.35;7.15;;;25.20;70.30;;;;;;5053660;28;20104;-71
2021/07/10 03:45:52;;;;;;;10.90;6.95;;;25.20;69.90;;;;;;5053691;28;20460;-71
2021/07/10 03:48:21;;;;;;;11.20;6.53;;;25.30;69.60;;;;;;5053149;28;20356;-72
2021/07/10 03:50:47;;;;;;;9.18;7.25;;;25.40;69.10;;;;;;5053088;28;20459;-71
2021/07/10 03:53:13;;;;;;;11.20;7.68;;;25.40;68.70;;;;;;5053760;28;20124;-72
2021/07/10 03:55:40;;;;;;;10.45;6.40;;;25.50;68.50;;;;;;5053842;28;20119;-72
2021/07/10 03:58:06;;;;;;;11.80;7.90;;;25.50;68.20;;;;;;5053209;28;20048;-73
2021/07/10 04:00:32;;;;;;;10.80;7.38;;;25.50;67.90;;;;;;5053271;28;20017;-71
2021/07/10 04:03:01;;;;;;;12.73;7.93;;;25.60;67.70;;;;;;5053452;28;20059;-71
2021/07/10 04:05:27;;;;;;;10.38;7.32;;;25.60;67.50;;;;;;5053257;28;20479;-73
2021/07/10 04:07:52;;;;;;;10.27;7.15;;;25.70;67.40;;;;;;5053176;28;20054;-73
2021/07/10 04:10:18;;;;;;;9.15;6.97;;;25.80;67.30;;;;;;5068557;28;20375;-73
2021/07/10 04:12:45;;;;;;;10.07;7.03;;;25.80;67.20;;;;;;5068591;28;20360;-72
2021/07/10 04:15:13;;;;;;;10.48;7.15;;;25.90;67.10;;;;;;5053116;28;20057;-72
2021/07/10 04:17:39;;;;;;;11.07;7.90;;;25.90;67.00;;;;;;5054742;28;20057;-72
2021/07/10 04:20:08;;;;;;;9.50;7.18;;;25.90;66.90;;;;;;5057297;28;20029;-72
2021/07/10 04:22:37;;;;;;;10.55;7.63;;;26.00;66.80;;;;;;5056666;28;20482;-72
2021/07/10 04:25:05;;;;;;;10.90;7.63;;;26.10;66.80;;;;;;5056806;28;20021;-72
2021/07/10 04:27:32;;;;;;;8.70;7.60;;;26.10;66.60;;;;;;5056702;28;20036;-73
2021/07/10 04:29:59;;;;;;;15.05;7.90;;;26.10;66.50;;;;;;5057109;28;20029;-71
2021/07/10 04:32:25;;;;;;;11.00;7.43;;;26.20;66.50;;;;;;5057427;28;20025;-73
2021/07/10 04:34:51;;;;;;;10.48;7.55;;;26.30;66.40;;;;;;5056888;28;20104;-72
2021/07/10 04:37:16;;;;;;;12.02;7.18;;;26.30;66.30;;;;;;5055396;28;20060;-73
2021/07/10 04:39:43;;;;;;;10.63;7.95;;;26.40;66.30;;;;;;5056340;28;20064;-73
2021/07/10 04:42:09;;;;;;;9.63;7.63;;;26.40;66.10;;;;;;5057242;28;20029;-72
2021/07/10 04:44:35;;;;;;;10.07;7.65;;;26.50;65.90;;;;;;5056994;28;20032;-73
2021/07/10 04:47:01;;;;;;;12.02;7.40;;;26.60;65.70;;;;;;5071601;28;20141;-72
2021/07/10 04:49:27;;;;;;;14.32;7.85;;;26.70;65.90;;;;;;5056436;28;20036;-73
2021/07/10 04:51:52;;;;;;;17.33;8.00;;;26.70;65.40;;;;;;5056068;28;20025;-73
2021/07/10 04:54:18;;;;;;;10.90;7.22;;;26.80;65.80;;;;;;5057074;28;20045;-72
2021/07/10 04:56:44;;;;;;;10.13;6.75;;;26.90;64.90;;;;;;5056411;28;20078;-72
2021/07/10 04:59:09;;;;;;;13.75;7.45;;;26.90;64.60;;;;;;5056666;28;20498;-72
2021/07/10 05:01:35;;;;;;;12.38;7.22;;;27.10;64.30;;;;;;5056527;28;20483;-73
2021/07/10 05:04:01;;;;;;;8.60;6.90;;;27.20;64.00;;;;;;5056404;28;20056;-73
2021/07/10 05:06:26;;;;;;;9.95;7.28;;;27.20;63.50;;;;;;5056141;28;20525;-72
2021/07/10 05:08:52;;;;;;;8.80;6.72;;;27.30;62.90;;;;;;5056039;28;20021;-73
2021/07/10 05:11:18;;;;;;;12.05;6.28;;;27.40;62.40;;;;;;5056032;28;20456;-73
2021/07/10 05:13:44;;;;;;;7.95;6.20;;;27.50;62.10;;;;;;5056497;28;20035;-73
2021/07/10 05:16:09;;;;;;;8.90;6.72;;;27.60;61.70;;;;;;5055728;28;20443;-73
2021/07/10 05:18:35;;;;;;;9.80;6.60;;;27.70;61.20;;;;;;5071320;28;20048;-71
2021/07/10 05:21:01;;;;;;;11.15;6.88;;;27.80;61.10;;;;;;5056032;28;20101;-73
2021/07/10 05:23:27;;;;;;;7.25;6.07;;;27.90;61.00;;;;;;5054351;28;20036;-73
2021/07/10 05:25:52;;;;;;;16.45;9.25;;;27.90;60.40;;;;;;5055934;28;20447;-71
2021/07/10 05:28:18;;;;;;;15.98;9.02;;;28.00;60.30;;;;;;5055122;28;20104;-72
2021/07/10 05:30:44;;;;;;;10.80;7.03;;;28.10;60.10;;;;;;5055734;28;20371;-73
2021/07/10 05:33:09;;;;;;;9.98;6.65;;;28.10;59.60;;;;;;5055641;28;20033;-73
2021/07/10 05:35:38;;;;;;;10.95;6.38;;;28.10;59.20;;;;;;5055787;28;20029;-73
2021/07/10 05:38:03;;;;;;;7.45;6.32;;;28.20;59.20;;;;;;5055224;28;20029;-72
2021/07/10 05:40:29;;;;;;;11.18;6.35;;;28.30;59.00;;;;;;5056238;28;20032;-72
2021/07/10 05:42:55;;;;;;;11.18;6.57;;;28.30;59.00;;;;;;5055268;28;20482;-76
2021/07/10 05:45:21;;;;;;;8.50;6.53;;;28.40;59.00;;;;;;5055389;28;20029;-73
2021/07/10 05:47:48;;;;;;;13.10;6.38;;;28.50;59.20;;;;;;5055325;28;20449;-73
2021/07/10 05:50:14;;;;;;;11.23;6.85;;;28.50;59.00;;;;;;5055512;28;20447;-73
2021/07/10 05:52:40;;;;;;;11.38;6.57;;;28.50;58.80;;;;;;5055348;28;20127;-73
2021/07/10 05:55:07;;;;;;;8.68;5.88;;;28.60;58.60;;;;;;5055543;28;20510;-73
2021/07/10 05:57:32;;;;;;;7.82;6.05;;;28.60;58.40;;;;;;5055078;28;20056;-73
2021/07/10 05:59:58;;;;;;;8.82;6.32;;;28.70;58.20;;;;;;5055234;28;20064;-73
2021/07/10 06:02:24;;;;;;;11.63;6.10;;;28.70;57.80;;;;;;5055717;28;20434;-73
2021/07/10 06:04:49;;;;;;;7.72;6.20;;;28.80;57.50;;;;;;5054967;28;20031;-73
2021/07/10 06:07:15;;;;;;;12.50;6.57;;;28.90;57.40;;;;;;5055613;28;20099;-72
2021/07/10 06:09:41;;;;;;;10.00;6.00;;;28.90;57.00;;;;;;5054833;28;20075;-71
2021/07/10 06:12:08;;;;;;;12.30;6.20;;;29.00;56.90;;;;;;5055077;28;20032;-72
2021/07/10 06:14:33;;;;;;;9.70;6.22;;;29.00;56.80;;;;;;5054546;28;20040;-73
2021/07/10 06:16:59;;;;;;;11.48;6.35;;;29.00;56.70;;;;;;5070585;28;20025;-73
2021/07/10 06:19:25;;;;;;;8.27;5.60;;;29.10;56.50;;;;;;5053176;28;20452;-74
2021/07/10 06:21:52;;;;;;;10.43;5.80;;;29.10;56.30;;;;;;5054647;28;20025;-72
2021/07/10 06:24:17;;;;;;;8.00;5.95;;;29.20;56.40;;;;;;5054670;28;20367;-73
2021/07/10 06:26:43;;;;;;;13.38;6.28;;;29.20;56.40;;;;;;5055077;28;20085;-72
2021/07/10 06:29:09;;;;;;;13.65;5.90;;;29.20;56.00;;;;;;5054171;28;20467;-72
2021/07/10 06:31:34;;;;;;;11.77;6.40;;;29.20;56.00;;;;;;5054753;28;20107;-72
2021/07/10 06:34:00;;;;;;;9.77;7.10;;;29.30;56.20;;;;;;5054578;28;20037;-74
2021/07/10 06:36:29;;;;;;;9.25;6.20;;;29.40;56.20;;;;;;5054246;28;20028;-73
2021/07/10 06:38:55;;;;;;;7.75;6.13;;;29.40;55.80;;;;;;5054126;28;20378;-73
2021/07/10 06:41:21;;;;;;;9.82;6.47;;;29.50;55.80;;;;;;5053487;28;20107;-73
2021/07/10 06:43:46;;;;;;;8.43;5.90;;;29.50;55.70;;;;;;5054063;28;20108;-73
2021/07/10 06:46:12;;;;;;;22.98;7.25;;;29.60;55.60;;;;;;5054487;28;20025;-73
2021/07/10 06:48:38;;;;;;;9.43;6.25;;;29.70;55.30;;;;;;5053910;28;20486;-73
2021/07/10 06:51:04;;;;;;;18.45;6.40;;;29.70;55.20;;;;;;5069440;28;20464;-72
2021/07/10 06:53:31;;;;;;;9.55;7.05;;;29.80;55.30;;;;;;5054515;28;20045;-79
2021/07/10 06:55:57;;;;;;;11.23;6.88;;;29.80;55.20;;;;;;5054071;28;20445;-72
2021/07/10 06:58:23;;;;;;;10.75;7.10;;;29.80;55.00;;;;;;5054027;28;20151;-74
2021/07/10 07:00:49;;;;;;;9.35;6.20;;;29.90;54.90;;;;;;5054006;28;20095;-72
2021/07/10 07:03:15;;;;;;;9.93;6.85;;;29.90;54.60;;;;;;5053589;28;20442;-72
2021/07/10 07:05:41;;;;;;;11.80;6.85;;;29.90;54.40;;;;;;5053741;28;20101;-72
2021/07/10 07:08:07;;;;;;;10.60;6.60;;;30.00;54.30;;;;;;5054009;28;20055;-72
2021/07/10 07:10:33;;;;;;;10.20;7.00;;;30.00;54.20;;;;;;5053750;28;20130;-72
2021/07/10 07:12:59;;;;;;;8.35;7.10;;;30.10;54.10;;;;;;5054471;28;20033;-74
2021/07/10 07:15:25;;;;;;;13.82;6.95;;;30.10;54.00;;;;;;5053572;28;20044;-74
2021/07/10 07:17:51;;;;;;;20.10;7.00;;;30.20;54.00;;;;;;5053761;28;20025;-72
2021/07/10 07:20:17;;;;;;;10.30;6.72;;;30.20;53.70;;;;;;5054135;28;20455;-72
2021/07/10 07:22:47;;;;;;;9.68;6.18;;;30.30;53.70;;;;;;5053279;28;20435;-75
2021/07/10 07:25:17;;;;;;;8.63;5.75;;;30.30;53.80;;;;;;5053178;28;20445;-72
2021/07/10 07:27:43;;;;;;;7.00;6.00;;;30.40;53.50;;;;;;5054247;28;20190;-75
2021/07/10 07:30:11;;;;;;;8.70;5.78;;;30.50;53.30;;;;;;5053886;28;20465;-73
2021/07/10 07:32:36;;;;;;;8.57;5.38;;;30.60;52.80;;;;;;5053297;28;20509;-72
2021/07/10 07:35:04;;;;;;;9.40;4.72;;;30.70;51.60;;;;;;5053463;28;20024;-73
2021/07/10 07:37:30;;;;;;;8.57;5.07;;;30.80;51.10;;;;;;5053215;28;20082;-73
2021/07/10 07:39:56;;;;;;;6.50;5.10;;;30.90;50.80;;;;;;5053365;28;20074;-73
2021/07/10 07:42:22;;;;;;;9.02;5.20;;;30.90;50.50;;;;;;5053559;28;20098;-72
2021/07/10 07:44:48;;;;;;;12.13;5.30;;;31.10;50.20;;;;;;5068734;28;20064;-72
2021/07/10 07:47:16;;;;;;;11.00;5.40;;;31.10;49.90;;;;;;5053598;28;20479;-74
2021/07/10 07:49:43;;;;;;;8.50;5.70;;;31.20;49.60;;;;;;5053712;28;20029;-73
2021/07/10 07:52:09;;;;;;;11.43;5.20;;;31.30;49.50;;;;;;5055650;28;20037;-73
2021/07/10 07:54:36;;;;;;;9.60;5.82;;;31.30;49.20;;;;;;5057353;28;20029;-73
2021/07/10 07:57:02;;;;;;;9.40;6.15;;;31.30;49.40;;;;;;5057714;28;20036;-74
2021/07/10 07:59:28;;;;;;;5.90;5.30;;;31.40;49.70;;;;;;5057711;28;20068;-73
2021/07/10 08:01:54;;;;;;;8.73;5.40;;;31.50;49.80;;;;;;5057413;28;20048;-73
2021/07/10 08:04:20;;;;;;;7.93;5.72;;;31.50;50.10;;;;;;5057152;28;20060;-73
2021/07/10 08:06:46;;;;;;;8.65;5.47;;;31.50;50.10;;;;;;5057154;28;20550;-73
2021/07/10 08:09:12;;;;;;;7.50;5.75;;;31.70;50.10;;;;;;5056990;28;20109;-73
2021/07/10 08:11:38;;;;;;;8.02;5.90;;;31.70;49.80;;;;;;5057152;28;20490;-72
2021/07/10 08:14:04;;;;;;;8.00;5.60;;;31.80;49.60;;;;;;5057164;28;20052;-73
2021/07/10 08:16:31;;;;;;;6.28;5.25;;;31.90;49.20;;;;;;5057085;28;20033;-73
2021/07/10 08:18:57;;;;;;;9.50;5.57;;;32.10;48.90;;;;;;5057145;28;20041;-72
2021/07/10 08:21:26;;;;;;;10.55;5.90;;;32.10;48.90;;;;;;5057451;28;20052;-74
2021/07/10 08:23:53;;;;;;;7.35;5.32;;;32.20;48.80;;;;;;5056550;28;20070;-74
2021/07/10 08:26:20;;;;;;;9.10;6.07;;;32.40;48.80;;;;;;5056935;28;20037;-75
2021/07/10 08:28:46;;;;;;;11.23;5.60;;;32.50;48.40;;;;;;5056923;28;20375;-73
2021/07/10 08:31:12;;;;;;;9.55;5.80;;;32.60;48.10;;;;;;5056507;28;20091;-74
2021/07/10 08:33:38;;;;;;;7.45;5.40;;;32.70;47.90;;;;;;5056271;28;20406;-73
2021/07/10 08:36:07;;;;;;;9.13;5.88;;;32.80;47.80;;;;;;5056879;28;20035;-73
2021/07/10 08:38:34;;;;;;;8.35;6.50;;;33.00;47.60;;;;;;5057270;28;20033;-74
2021/07/10 08:41:00;;;;;;;6.30;5.70;;;33.10;47.60;;;;;;5073000;28;20336;-73
2021/07/10 08:43:26;;;;;;;10.38;5.35;;;33.30;47.10;;;;;;5056839;28;20024;-74
2021/07/10 08:45:55;;;;;;;6.95;5.28;;;33.50;46.90;;;;;;5056283;28;20418;-72
2021/07/10 08:48:21;;;;;;;9.73;5.72;;;33.70;46.60;;;;;;5056593;28;20067;-73
2021/07/10 08:50:47;;;;;;;8.77;6.22;;;33.80;46.90;;;;;;5056235;28;20032;-73
2021/07/10 08:53:12;;;;;;;9.23;5.93;;;34.10;46.20;;;;;;5056220;28;20049;-73
2021/07/10 08:55:38;;;;;;;7.65;5.47;;;34.30;46.10;;;;;;5056501;28;20029;-73
2021/07/10 08:58:05;;;;;;;14.05;5.80;;;34.40;45.70;;;;;;5056315;28;20040;-73
2021/07/10 09:00:37;;;;;;;5.72;5.13;;;34.60;45.50;;;;;;5056502;28;20115;-72
2021/07/10 09:03:05;;;;;;;7.00;5.55;;;34.90;45.20;;;;;;5054745;28;20029;-72
2021/07/10 09:05:31;;;;;;;8.20;5.90;;;35.10;45.00;;;;;;5056507;28;20375;-73
2021/07/10 09:08:22;;;;;;;7.78;5.35;;;35.30;44.50;;;;;;5056236;28;20033;-73
2021/07/10 09:11:14;;;;;;;11.32;5.13;;;35.50;44.00;;;;;;5055973;28;20029;-73
2021/07/10 09:13:44;;;;;;;9.45;4.80;;;35.80;43.00;;;;;;5056022;28;20479;-74
2021/07/10 09:16:18;;;;;;;7.68;5.65;;;35.90;42.90;;;;;;5055904;28;20413;-73
2021/07/10 09:19:05;;;;;;;8.35;4.88;;;36.10;42.30;;;;;;5055659;28;20087;-73
2021/07/10 09:21:51;;;;;;;5.63;5.05;;;36.20;41.90;;;;;;5055660;28;20112;-73
2021/07/10 09:24:25;;;;;;;5.93;4.78;;;36.50;41.90;;;;;;5055826;28;20055;-73
2021/07/10 09:26:54;;;;;;;9.80;5.05;;;36.70;41.70;;;;;;5055618;28;20037;-73
2021/07/10 09:29:35;;;;;;;5.38;4.85;;;37.00;41.80;;;;;;5055343;28;20021;-73
2021/07/10 09:32:06;;;;;;;7.47;5.15;;;37.10;40.90;;;;;;5056260;28;20025;-73
2021/07/10 09:34:45;;;;;;;7.82;5.05;;;37.40;40.70;;;;;;5055554;28;20382;-73
2021/07/10 09:37:17;;;;;;;7.50;5.00;;;37.70;40.30;;;;;;5055627;28;20066;-72
2021/07/10 09:39:58;;;;;;;5.87;4.93;;;37.90;40.20;;;;;;5055503;28;20052;-74
2021/07/10 09:42:35;;;;;;;6.00;4.75;;;38.10;39.30;;;;;;5055722;28;20025;-74
2021/07/10 09:45:01;;;;;;;11.32;6.05;;;38.30;39.20;;;;;;5055306;28;20040;-73
2021/07/10 09:47:29;;;;;;;6.75;4.82;;;38.60;39.10;;;;;;5055406;28;20032;-73
2021/07/10 09:49:56;;;;;;;10.43;4.82;;;38.80;38.90;;;;;;5055710;28;20078;-75
2021/07/10 09:52:24;;;;;;;8.98;4.75;;;39.00;38.20;;;;;;5055463;28;20036;-74
2021/07/10 09:54:54;;;;;;;5.22;4.60;;;39.20;38.20;;;;;;5055633;28;20061;-73
2021/07/10 09:57:25;;;;;;;5.55;5.00;;;39.50;37.90;;;;;;5055084;28;20041;-73
2021/07/10 09:59:53;;;;;;;6.15;4.93;;;39.70;37.70;;;;;;5054104;28;20041;-74
2021/07/10 10:02:23;;;;;;;9.52;5.10;;;40.00;37.20;;;;;;5055007;28;20471;-74
2021/07/10 10:04:50;;;;;;;6.72;5.18;;;40.10;36.90;;;;;;5055046;28;20025;-74
2021/07/10 10:07:18;;;;;;;11.55;5.03;;;40.30;36.90;;;;;;5055836;28;20028;-73
2021/07/10 10:09:45;;;;;;;5.68;4.60;;;40.40;36.80;;;;;;5054666;28;20498;-74
2021/07/10 10:12:14;;;;;;;6.70;5.25;;;40.70;36.90;;;;;;5054708;28;20075;-73
2021/07/10 10:15:00;;;;;;;5.30;4.80;;;40.90;36.70;;;;;;5055061;28;20029;-75
2021/07/10 10:17:27;;;;;;;17.48;5.85;;;41.10;36.20;;;;;;5054666;28;20044;-73
2021/07/10 10:19:54;;;;;;;7.40;5.03;;;41.20;36.20;;;;;;5054819;28;20120;-73
2021/07/10 10:22:20;;;;;;;9.27;5.50;;;41.40;36.00;;;;;;5054919;28;20060;-73
2021/07/10 10:24:49;;;;;;;8.93;5.18;;;41.50;35.70;;;;;;5055041;28;20029;-74
2021/07/10 10:27:16;;;;;;;7.30;6.47;;;41.60;35.50;;;;;;5054754;28;20029;-73
2021/07/10 10:29:43;;;;;;;7.38;5.55;;;41.60;35.50;;;;;;5054763;28;20036;-74
2021/07/10 10:32:09;;;;;;;8.15;6.13;;;41.60;35.40;;;;;;5054292;28;20029;-73
2021/07/10 10:34:39;;;;;;;15.35;5.53;;;41.70;35.50;;;;;;5054259;28;20029;-73
2021/07/10 10:37:06;;;;;;;5.60;5.00;;;41.80;35.50;;;;;;5054166;28;20037;-73
2021/07/10 10:39:36;;;;;;;7.20;5.65;;;42.10;35.70;;;;;;5053252;28;20340;-76
2021/07/10 10:42:09;;;;;;;9.93;5.65;;;42.20;35.60;;;;;;5069556;28;20118;-73
2021/07/10 10:44:40;;;;;;;9.20;5.57;;;42.50;35.30;;;;;;5054086;28;20025;-74
2021/07/10 10:47:09;;;;;;;6.20;5.60;;;42.70;35.10;;;;;;5053807;28;20040;-73
2021/07/10 10:49:48;;;;;;;7.07;5.93;;;42.90;35.10;;;;;;5054214;28;20550;-73
2021/07/10 10:52:25;;;;;;;8.15;5.80;;;43.10;34.70;;;;;;5052914;28;20377;-73
2021/07/10 10:54:54;;;;;;;6.95;6.15;;;43.30;34.80;;;;;;5054825;28;20028;-73
2021/07/10 10:57:38;;;;;;;8.68;6.05;;;43.40;34.20;;;;;;5054058;28;20044;-74
2021/07/10 11:00:24;;;;;;;7.97;6.60;;;43.50;34.00;;;;;;5052174;28;20025;-74
2021/07/10 11:02:51;;;;;;;8.23;5.53;;;43.60;33.90;;;;;;5069552;28;20067;-72
2021/07/10 11:05:33;;;;;;;8.13;5.53;;;43.90;34.10;;;;;;5054140;28;20037;-73
2021/07/10 11:08:18;;;;;;;6.88;5.78;;;44.00;34.10;;;;;;5054420;28;20028;-73
2021/07/10 11:11:04;;;;;;;9.15;5.93;;;44.20;34.20;;;;;;5054062;28;20025;-73
2021/07/10 11:13:42;;;;;;;6.22;5.63;;;44.50;34.00;;;;;;5050303;28;20478;-73
2021/07/10 11:16:19;;;;;;;6.43;5.82;;;44.70;33.80;;;;;;5053217;28;20029;-73
2021/07/10 11:19:08;;;;;;;8.68;6.15;;;44.80;33.40;;;;;;5054224;28;20029;-74
2021/07/10 11:21:45;;;;;;;6.70;5.47;;;45.00;33.20;;;;;;5054153;28;20040;-74
2021/07/10 11:24:20;;;;;;;6.45;5.72;;;45.20;33.40;;;;;;5054606;28;20031;-74
2021/07/10 11:26:55;;;;;;;11.05;6.20;;;45.50;33.10;;;;;;5053936;28;20036;-73
2021/07/10 11:29:24;;;;;;;7.75;5.75;;;45.60;32.90;;;;;;5053797;28;20032;-74
2021/07/10 11:31:51;;;;;;;11.45;6.15;;;45.70;32.90;;;;;;5053891;28;20028;-73
2021/07/10 11:34:18;;;;;;;8.77;5.75;;;45.80;32.70;;;;;;5053446;28;20056;-73
2021/07/10 11:36:52;;;;;;;7.70;6.28;;;46.00;32.40;;;;;;5054029;28;20040;-73
2021/07/10 11:39:23;;;;;;;6.10;5.50;;;46.00;32.10;;;;;;5054284;28;20379;-73
2021/07/10 11:42:25;;;;;;;6.32;5.70;;;46.00;32.20;;;;;;5053416;28;20029;-74
2021/07/10 11:45:05;;;;;;;6.88;5.85;;;46.20;32.20;;;;;;5053067;28;20029;-74
2021/07/10 11:47:34;;;;;;;7.07;5.93;;;46.40;31.80;;;;;;5053882;28;20033;-74
2021/07/10 11:50:08;;;;;;;7.15;6.25;;;46.50;31.50;;;;;;5053893;28;20040;-73
2021/07/10 11:52:34;;;;;;;9.23;5.80;;;46.80;30.90;;;;;;5053323;28;20515;-74
2021/07/10 11:55:03;;;;;;;6.85;5.95;;;47.00;30.20;;;;;;5053554;28;20029;-74
2021/07/10 11:57:38;;;;;;;8.98;5.85;;;47.30;30.00;;;;;;5053407;28;20029;-74
2021/07/10 12:00:07;;;;;;;6.80;5.32;;;47.50;29.70;;;;;;5053288;28;20035;-74
2021/07/10 12:02:33;;;;;;;7.15;5.57;;;47.70;29.60;;;;;;5053454;28;20422;-74
2021/07/10 12:05:09;;;;;;;9.13;7.18;;;47.90;29.60;;;;;;5053339;28;20032;-73
2021/07/10 12:07:43;;;;;;;6.97;6.38;;;48.10;29.40;;;;;;5053342;28;20060;-73
2021/07/10 12:10:17;;;;;;;5.55;4.97;;;48.30;29.00;;;;;;5053295;28;20418;-74
2021/07/10 12:13:13;;;;;;;5.65;4.70;;;48.50;28.70;;;;;;5053614;28;20032;-74
2021/07/10 12:15:41;;;;;;;7.40;5.60;;;48.70;28.50;;;;;;5043853;28;20044;-74
2021/07/10 12:18:11;;;;;;;5.90;5.30;;;48.90;28.40;;;;;;5053157;28;20060;-75
2021/07/10 12:20:42;;;;;;;6.45;5.50;;;49.00;28.10;;;;;;5053103;28;20029;-73
2021/07/10 12:23:20;;;;;;;7.75;5.43;;;49.20;28.20;;;;;;5052354;28;20029;-74
2021/07/10 12:25:49;;;;;;;6.18;5.20;;;49.30;28.20;;;;;;5053065;28;20108;-75
2021/07/10 12:28:17;;;;;;;6.43;5.38;;;49.40;28.00;;;;;;5053169;28;20044;-73
2021/07/10 12:30:51;;;;;;;6.43;5.85;;;49.50;28.00;;;;;;5053437;28;20105;-73
2021/07/10 12:33:43;;;;;;;6.25;5.65;;;49.60;28.50;;;;;;5053494;28;20029;-73
2021/07/10 12:36:11;;;;;;;5.88;5.38;;;49.70;28.80;;;;;;5053497;28;20033;-74
2021/07/10 12:38:53;;;;;;;8.77;5.38;;;49.80;28.70;;;;;;5054651;28;20029;-75
2021/07/10 12:41:44;;;;;;;8.18;5.63;;;49.90;28.10;;;;;;5056756;28;20033;-73
2021/07/10 12:44:13;;;;;;;6.18;5.10;;;50.00;28.10;;;;;;5056644;28;20040;-74
2021/07/10 12:46:54;;;;;;;6.47;5.07;;;50.00;28.00;;;;;;5056514;28;20036;-74
2021/07/10 12:49:22;;;;;;;9.40;5.43;;;50.20;27.80;;;;;;5056939;28;20037;-72